Habay-la-Vieille, Belgium
Current Conditions -  °F | °C
As of 8:20 AM on Saturday 29 Nov 2014 (Local Time) from ELLX Reporting Station
Haze Haze  
Wind Chill: 31°   Ceiling: 400
Heat Index: 36°   Visibility: 1.8mi
Dew Point: 34°   Wind: 6mph
Humidity: 93%   Direction: 80°E
Pressure: 29.91"   Gusts: NA
Location:  49.72°N, 5.62°E
Report Text: ELLX 290720Z 08005KT 360V130 3000 BR OVC004 02/01 Q1013 NOSIG
Loading
Personal Weather Stations






























Interactive Weather Map New forecast layout! Learn more

10-Day Weather Forecast

Advertisements
Track Severe Weather on mobile